Terminal Aerodrome Forecast
Issued by NWS Kansas City/Pleasant Hill, MO

Home | Current Version | Previous Version | Text Only | Print | Product List | Glossary On
Versions: 1 2 3 4 5 6 7 8 9 10 11 12 13
943
FTUS43 KEAX 060520
TAFMCI
TAF
KMCI 060520Z 0606/0706 VRB05KT P6SM SCT150
     FM060700 33011KT P6SM SCT020 OVC040
     FM061300 32013KT P6SM SCT120
     FM062300 28007KT P6SM BKN200=

USA.gov is the U.S. government's official web portal to all federal, state and local government web resources and services.